PWSweather.com
Personal Weather Stations
Station Observations
RTINEZ
TerrassaES 08226

TerrassaES 08226

Lat: 41.5762194, Lon: 2.028993700000001

Elevation: 367

Station Type: Watson W8681

www.rtinez.cat

High Low Average
Temperature 79.5°F26.4°C 65.5°F18.6°C 72.3°F22.4°C
Dew Point 68.4°F20.2°C 59.0°F15.0°C 64.9°F18.3°C
Winds 11.4 mph 18.3 kmh Calm Calm 4.0 mph SW6.4 kmh SW
Wind Gusts 16.8 mph27.0 kmh 1.6 mph2.6 kmh 9.0 mph14.5 kmh
Humidity 93% 59% 78%
Pressure 30.08 in1018.6 mb 28.81 in975.6 mb -
Precipitation 9.96 in253.0 mm - -
Hour Temp Dew Point Humidity Winds Wind Gusts Pressure Precip Precip Rate Daily Precip Total
12:00 AM 68.5°F20.3°C 65.8°F18.8°C 91% 6.9 mph WNW11.1 kmh WNW 12.1 mph19.5 kmh 30.06 in1017.9 mb 0.00 in0.0 mm 0.00 in0.0 mm 0.00 in0.0 mm
12:15 AM 68.4°F20.2°C 66.0°F18.9°C 92% 8.3 mph W13.4 kmh W 14.5 mph23.3 kmh 28.84 in976.6 mb 0.00 in0.0 mm 0.00 in0.0 mm 0.00 in0.0 mm
12:30 AM 68.0°F20.0°C 65.6°F18.7°C 92% 5.4 mph W8.7 kmh W 12.1 mph19.5 kmh 30.05 in1017.6 mb 0.00 in0.0 mm 0.00 in0.0 mm 0.00 in0.0 mm
12:45 AM 68.2°F20.1°C 65.5°F18.6°C 91% 6.9 mph WNW11.1 kmh WNW 10.7 mph17.2 kmh 30.05 in1017.6 mb 0.00 in0.0 mm 0.00 in0.0 mm 0.00 in0.0 mm
01:00 AM 68.2°F20.1°C 65.5°F18.6°C 91% 4.5 mph W7.2 kmh W 9.8 mph15.8 kmh 28.83 in976.3 mb 0.00 in0.0 mm 0.00 in0.0 mm 0.00 in0.0 mm
01:15 AM 68.2°F20.1°C 65.5°F18.6°C 91% 3.8 mph W6.1 kmh W 10.7 mph17.2 kmh 30.04 in1017.3 mb 0.00 in0.0 mm 0.00 in0.0 mm 0.00 in0.0 mm
01:30 AM 68.2°F20.1°C 65.5°F18.6°C 91% 6.0 mph W9.7 kmh W 8.3 mph13.4 kmh 30.05 in1017.6 mb 0.00 in0.0 mm 0.00 in0.0 mm 0.00 in0.0 mm
01:45 AM 67.8°F19.9°C 65.8°F18.8°C 93% 3.8 mph WNW6.1 kmh WNW 7.6 mph12.2 kmh 28.82 in976.0 mb 0.00 in0.0 mm 0.00 in0.0 mm 0.00 in0.0 mm
02:00 AM 67.6°F19.8°C 65.6°F18.7°C 93% 3.8 mph W6.1 kmh W 9.2 mph14.8 kmh 28.82 in976.0 mb 0.00 in0.0 mm 0.00 in0.0 mm 0.00 in0.0 mm
02:15 AM 67.5°F19.7°C 65.1°F18.4°C 92% 5.4 mph W8.7 kmh W 9.8 mph15.8 kmh 28.82 in976.0 mb 0.00 in0.0 mm 0.00 in0.0 mm 0.00 in0.0 mm
02:30 AM 67.3°F19.6°C 64.6°F18.1°C 91% 2.2 mph W3.5 kmh W 5.4 mph8.7 kmh 28.82 in976.0 mb 0.00 in0.0 mm 0.00 in0.0 mm 0.00 in0.0 mm
02:45 AM 66.7°F19.3°C 63.7°F17.6°C 90% 3.1 mph WNW5.0 kmh WNW 5.4 mph8.7 kmh 28.82 in976.0 mb 0.00 in0.0 mm 0.00 in0.0 mm 0.00 in0.0 mm
03:00 AM 66.2°F19.0°C 62.6°F17.0°C 88% 3.1 mph W5.0 kmh W 4.5 mph7.2 kmh 30.04 in1017.3 mb 0.00 in0.0 mm 0.00 in0.0 mm 0.00 in0.0 mm
03:15 AM 65.7°F18.7°C 62.4°F16.9°C 89% 1.6 mph NW2.6 kmh NW 3.8 mph6.1 kmh 30.04 in1017.3 mb 0.00 in0.0 mm 0.00 in0.0 mm 0.00 in0.0 mm
03:30 AM 65.5°F18.6°C 62.2°F16.8°C 89% 1.6 mph NW2.6 kmh NW 3.1 mph5.0 kmh 28.81 in975.6 mb 0.00 in0.0 mm 0.00 in0.0 mm 0.00 in0.0 mm
03:45 AM 65.7°F18.7°C 60.4°F15.8°C 83% 1.6 mph N2.6 kmh N 4.5 mph7.2 kmh 28.82 in976.0 mb 0.00 in0.0 mm 0.00 in0.0 mm 0.00 in0.0 mm
04:00 AM 66.4°F19.1°C 59.0°F15.0°C 77% 4.5 mph NW7.2 kmh NW 6.0 mph9.7 kmh 30.03 in1016.9 mb 0.00 in0.0 mm 0.00 in0.0 mm 0.00 in0.0 mm
04:15 AM 67.5°F19.7°C 61.1°F16.2°C 80% 5.4 mph NW8.7 kmh NW 6.0 mph9.7 kmh 30.04 in1017.3 mb 0.00 in0.0 mm 0.00 in0.0 mm 0.00 in0.0 mm
04:30 AM 67.6°F19.8°C 61.6°F16.4°C 81% Calm Calm 5.4 mph8.7 kmh 28.81 in975.6 mb 0.00 in0.0 mm 0.00 in0.0 mm 0.00 in0.0 mm
04:45 AM 67.3°F19.6°C 61.3°F16.3°C 81% 0.7 mph W1.1 kmh W 3.1 mph5.0 kmh 28.81 in975.6 mb 0.00 in0.0 mm 0.00 in0.0 mm 0.00 in0.0 mm
05:00 AM 67.3°F19.6°C 60.6°F15.9°C 79% 2.2 mph SSW3.5 kmh SSW 3.1 mph5.0 kmh 28.81 in975.6 mb 0.00 in0.0 mm 0.00 in0.0 mm 0.00 in0.0 mm
05:15 AM 67.3°F19.6°C 61.3°F16.3°C 81% 1.6 mph WSW2.6 kmh WSW 3.8 mph6.1 kmh 28.81 in975.6 mb 0.00 in0.0 mm 0.00 in0.0 mm 0.00 in0.0 mm
05:30 AM 67.5°F19.7°C 61.5°F16.4°C 81% Calm Calm 3.1 mph5.0 kmh 30.03 in1016.9 mb 0.00 in0.0 mm 0.00 in0.0 mm 0.00 in0.0 mm
06:00 AM 66.2°F19.0°C 60.9°F16.1°C 83% 0.7 mph WSW1.1 kmh WSW 2.2 mph3.5 kmh 30.04 in1017.3 mb 0.00 in0.0 mm 0.00 in0.0 mm 9.96 in253.0 mm
06:15 AM 66.4°F19.1°C 61.4°F16.3°C 84% Calm Calm 3.1 mph5.0 kmh 30.03 in1016.9 mb 0.00 in0.0 mm 0.00 in0.0 mm 9.96 in253.0 mm
06:30 AM 65.8°F18.8°C 61.6°F16.4°C 86% Calm Calm 1.6 mph2.6 kmh 30.04 in1017.3 mb 0.00 in0.0 mm 0.00 in0.0 mm 9.96 in253.0 mm
06:45 AM 65.8°F18.8°C 61.9°F16.6°C 87% 1.6 mph NW2.6 kmh NW 2.2 mph3.5 kmh 30.04 in1017.3 mb 0.00 in0.0 mm 0.00 in0.0 mm 0.00 in0.0 mm
07:00 AM 65.8°F18.8°C 62.2°F16.8°C 88% 1.6 mph N2.6 kmh N 3.1 mph5.0 kmh 30.04 in1017.3 mb 0.00 in0.0 mm 0.00 in0.0 mm 9.96 in253.0 mm
07:15 AM 66.2°F19.0°C 61.9°F16.6°C 86% Calm Calm 2.2 mph3.5 kmh 30.05 in1017.6 mb 0.00 in0.0 mm 0.00 in0.0 mm 9.96 in253.0 mm
07:30 AM 68.0°F20.0°C 63.0°F17.2°C 84% 0.7 mph WNW1.1 kmh WNW 2.2 mph3.5 kmh 30.05 in1017.6 mb 0.00 in0.0 mm 0.00 in0.0 mm 0.00 in0.0 mm
07:45 AM 68.9°F20.5°C 62.5°F16.9°C 80% 1.6 mph WSW2.6 kmh WSW 3.1 mph5.0 kmh 30.05 in1017.6 mb 0.00 in0.0 mm 0.00 in0.0 mm 9.96 in253.0 mm
08:00 AM 72.3°F22.4°C 65.1°F18.4°C 78% Calm Calm 2.2 mph3.5 kmh 30.05 in1017.6 mb 0.00 in0.0 mm 0.00 in0.0 mm 0.00 in0.0 mm
08:15 AM 75.2°F24.0°C 62.7°F17.1°C 65% 2.2 mph W3.5 kmh W 3.8 mph6.1 kmh 30.05 in1017.6 mb 0.00 in0.0 mm 0.00 in0.0 mm 9.96 in253.0 mm
08:30 AM 74.5°F23.6°C 61.5°F16.4°C 64% 3.8 mph WSW6.1 kmh WSW 6.0 mph9.7 kmh 30.06 in1017.9 mb 0.00 in0.0 mm 0.00 in0.0 mm 0.00 in0.0 mm
08:45 AM 72.0°F22.2°C 60.0°F15.6°C 66% 4.5 mph W7.2 kmh W 6.9 mph11.1 kmh 30.06 in1017.9 mb 0.00 in0.0 mm 0.00 in0.0 mm 9.96 in253.0 mm
09:00 AM 74.8°F23.8°C 61.9°F16.6°C 64% 1.6 mph WSW2.6 kmh WSW 4.5 mph7.2 kmh 30.06 in1017.9 mb 0.00 in0.0 mm 0.00 in0.0 mm 0.00 in0.0 mm
09:15 AM 75.7°F24.3°C 60.4°F15.8°C 59% 1.6 mph WSW2.6 kmh WSW 4.5 mph7.2 kmh 30.06 in1017.9 mb 0.00 in0.0 mm 0.00 in0.0 mm 0.00 in0.0 mm
09:30 AM 75.7°F24.3°C 61.4°F16.3°C 61% 6.9 mph W11.1 kmh W 10.7 mph17.2 kmh 30.07 in1018.3 mb 0.00 in0.0 mm 0.00 in0.0 mm 9.96 in253.0 mm
09:45 AM 75.7°F24.3°C 61.4°F16.3°C 61% 6.0 mph W9.7 kmh W 9.8 mph15.8 kmh 30.07 in1018.3 mb 0.00 in0.0 mm 0.00 in0.0 mm 0.00 in0.0 mm
10:00 AM 75.7°F24.3°C 62.7°F17.1°C 64% 8.3 mph WNW13.4 kmh WNW 11.4 mph18.3 kmh 30.07 in1018.3 mb 0.00 in0.0 mm 0.00 in0.0 mm 9.96 in253.0 mm
10:15 AM 75.4°F24.1°C 62.4°F16.9°C 64% 9.2 mph W14.8 kmh W 12.1 mph19.5 kmh 30.07 in1018.3 mb 0.00 in0.0 mm 0.00 in0.0 mm 0.00 in0.0 mm
10:30 AM 75.7°F24.3°C 63.6°F17.6°C 66% 4.5 mph WSW7.2 kmh WSW 12.1 mph19.5 kmh 30.06 in1017.9 mb 0.00 in0.0 mm 0.00 in0.0 mm 9.96 in253.0 mm
10:45 AM 75.7°F24.3°C 63.6°F17.6°C 66% 9.8 mph W15.8 kmh W 16.8 mph27.0 kmh 30.06 in1017.9 mb 0.00 in0.0 mm 0.00 in0.0 mm 0.00 in0.0 mm
11:00 AM 75.7°F24.3°C 64.5°F18.1°C 68% 11.4 mph W18.3 kmh W 16.8 mph27.0 kmh 30.05 in1017.6 mb 0.00 in0.0 mm 0.00 in0.0 mm 0.00 in0.0 mm
11:15 AM 75.2°F24.0°C 65.2°F18.4°C 71% 6.9 mph W11.1 kmh W 13.0 mph20.9 kmh 30.05 in1017.6 mb 0.00 in0.0 mm 0.00 in0.0 mm 0.00 in0.0 mm
11:30 AM 75.2°F24.0°C 65.2°F18.4°C 71% 3.8 mph WNW6.1 kmh WNW 13.0 mph20.9 kmh 30.04 in1017.3 mb 0.00 in0.0 mm 0.00 in0.0 mm 0.00 in0.0 mm
11:45 AM 75.6°F24.2°C 64.7°F18.2°C 69% 5.4 mph W8.7 kmh W 10.7 mph17.2 kmh 30.05 in1017.6 mb 0.00 in0.0 mm 0.00 in0.0 mm 9.96 in253.0 mm
12:00 PM 75.7°F24.3°C 63.6°F17.6°C 66% 7.6 mph WSW12.2 kmh WSW 13.6 mph21.9 kmh 30.04 in1017.3 mb 0.00 in0.0 mm 0.00 in0.0 mm 9.96 in253.0 mm
12:15 PM 75.7°F24.3°C 63.6°F17.6°C 66% 6.9 mph WSW11.1 kmh WSW 13.0 mph20.9 kmh 30.05 in1017.6 mb 0.00 in0.0 mm 0.00 in0.0 mm 9.96 in253.0 mm
12:30 PM 79.2°F26.2°C 64.6°F18.1°C 61% 1.6 mph WNW2.6 kmh WNW 13.0 mph20.9 kmh 30.04 in1017.3 mb 0.00 in0.0 mm 0.00 in0.0 mm 0.00 in0.0 mm
12:45 PM 79.0°F26.1°C 63.5°F17.5°C 59% 5.4 mph WSW8.7 kmh WSW 13.0 mph20.9 kmh 30.04 in1017.3 mb 0.00 in0.0 mm 0.00 in0.0 mm 0.00 in0.0 mm
01:00 PM 77.2°F25.1°C 63.2°F17.3°C 62% 9.8 mph W15.8 kmh W 15.2 mph24.5 kmh 30.04 in1017.3 mb 0.00 in0.0 mm 0.00 in0.0 mm 9.96 in253.0 mm
01:15 PM 79.2°F26.2°C 65.1°F18.4°C 62% 6.0 mph WSW9.7 kmh WSW 14.5 mph23.3 kmh 30.04 in1017.3 mb 0.00 in0.0 mm 0.00 in0.0 mm 9.96 in253.0 mm
01:30 PM 79.0°F26.1°C 65.8°F18.8°C 64% 5.4 mph SW8.7 kmh SW 13.6 mph21.9 kmh 30.04 in1017.3 mb 0.00 in0.0 mm 0.00 in0.0 mm 9.96 in253.0 mm
01:45 PM 79.5°F26.4°C 66.3°F19.1°C 64% 6.9 mph SW11.1 kmh SW 12.1 mph19.5 kmh 30.02 in1016.6 mb 0.00 in0.0 mm 0.00 in0.0 mm 9.96 in253.0 mm
02:00 PM 75.7°F24.3°C 64.5°F18.1°C 68% 9.2 mph WSW14.8 kmh WSW 13.6 mph21.9 kmh 30.02 in1016.6 mb 0.00 in0.0 mm 0.00 in0.0 mm 0.00 in0.0 mm
02:15 PM 79.2°F26.2°C 66.9°F19.4°C 66% 9.8 mph SW15.8 kmh SW 15.2 mph24.5 kmh 30.02 in1016.6 mb 0.00 in0.0 mm 0.00 in0.0 mm 9.96 in253.0 mm
02:30 PM 77.7°F25.4°C 65.1°F18.4°C 65% 4.5 mph WSW7.2 kmh WSW 13.6 mph21.9 kmh 30.01 in1016.3 mb 0.00 in0.0 mm 0.00 in0.0 mm 0.00 in0.0 mm
02:45 PM 77.7°F25.4°C 65.1°F18.4°C 65% 8.3 mph S13.4 kmh S 12.1 mph19.5 kmh 30.01 in1016.3 mb 0.00 in0.0 mm 0.00 in0.0 mm 9.96 in253.0 mm
03:00 PM 77.4°F25.2°C 65.6°F18.7°C 67% 7.6 mph S12.2 kmh S 16.8 mph27.0 kmh 30.01 in1016.3 mb 0.00 in0.0 mm 0.00 in0.0 mm 0.00 in0.0 mm
03:15 PM 77.7°F25.4°C 65.5°F18.6°C 66% 8.3 mph SSE13.4 kmh SSE 15.2 mph24.5 kmh 30.00 in1015.9 mb 0.00 in0.0 mm 0.00 in0.0 mm 9.96 in253.0 mm
03:30 PM 77.5°F25.3°C 65.3°F18.5°C 66% 7.6 mph S12.2 kmh S 12.1 mph19.5 kmh 30.00 in1015.9 mb 0.00 in0.0 mm 0.00 in0.0 mm 0.00 in0.0 mm
03:45 PM 77.2°F25.1°C 65.8°F18.8°C 68% 6.9 mph S11.1 kmh S 13.0 mph20.9 kmh 30.00 in1015.9 mb 0.00 in0.0 mm 0.00 in0.0 mm 9.96 in253.0 mm
04:00 PM 77.2°F25.1°C 66.7°F19.3°C 70% 1.6 mph S2.6 kmh S 13.0 mph20.9 kmh 30.00 in1015.9 mb 0.00 in0.0 mm 0.00 in0.0 mm 9.96 in253.0 mm
04:15 PM 77.2°F25.1°C 66.3°F19.1°C 69% 10.7 mph S17.2 kmh S 14.5 mph23.3 kmh 30.00 in1015.9 mb 0.00 in0.0 mm 0.00 in0.0 mm 0.00 in0.0 mm
04:30 PM 77.2°F25.1°C 67.1°F19.5°C 71% 5.4 mph S8.7 kmh S 15.2 mph24.5 kmh 30.01 in1016.3 mb 0.00 in0.0 mm 0.00 in0.0 mm 9.96 in253.0 mm
04:45 PM 75.7°F24.3°C 66.9°F19.4°C 74% 6.0 mph S9.7 kmh S 13.0 mph20.9 kmh 30.00 in1015.9 mb 0.00 in0.0 mm 0.00 in0.0 mm 9.96 in253.0 mm
05:00 PM 75.4°F24.1°C 67.3°F19.6°C 76% 4.5 mph S7.2 kmh S 13.6 mph21.9 kmh 30.01 in1016.3 mb 0.00 in0.0 mm 0.00 in0.0 mm 9.96 in253.0 mm
05:15 PM 75.6°F24.2°C 67.5°F19.7°C 76% 8.3 mph S13.4 kmh S 13.6 mph21.9 kmh 30.00 in1015.9 mb 0.00 in0.0 mm 0.00 in0.0 mm 0.00 in0.0 mm
05:30 PM 74.1°F23.4°C 68.0°F20.0°C 81% 6.9 mph SSE11.1 kmh SSE 13.6 mph21.9 kmh 30.00 in1015.9 mb 0.00 in0.0 mm 0.00 in0.0 mm 0.00 in0.0 mm
05:45 PM 73.9°F23.3°C 68.1°F20.1°C 82% 6.9 mph S11.1 kmh S 13.6 mph21.9 kmh 30.01 in1016.3 mb 0.00 in0.0 mm 0.00 in0.0 mm 0.00 in0.0 mm
06:00 PM 73.9°F23.3°C 68.1°F20.1°C 82% 7.6 mph SSW12.2 kmh SSW 12.1 mph19.5 kmh 30.01 in1016.3 mb 0.00 in0.0 mm 0.00 in0.0 mm 0.00 in0.0 mm
06:15 PM 73.4°F23.0°C 68.0°F20.0°C 83% 7.6 mph S12.2 kmh S 13.6 mph21.9 kmh 30.01 in1016.3 mb 0.00 in0.0 mm 0.00 in0.0 mm 0.00 in0.0 mm
06:30 PM 73.2°F22.9°C 67.8°F19.9°C 83% 3.1 mph SW5.0 kmh SW 11.4 mph18.3 kmh 30.01 in1016.3 mb 0.00 in0.0 mm 0.00 in0.0 mm 0.00 in0.0 mm
06:45 PM 72.9°F22.7°C 67.8°F19.9°C 84% 4.5 mph S7.2 kmh S 10.7 mph17.2 kmh 30.01 in1016.3 mb 0.00 in0.0 mm 0.00 in0.0 mm 9.96 in253.0 mm
07:00 PM 72.9°F22.7°C 68.1°F20.1°C 85% 3.8 mph SSW6.1 kmh SSW 9.2 mph14.8 kmh 30.02 in1016.6 mb 0.00 in0.0 mm 0.00 in0.0 mm 9.96 in253.0 mm
07:15 PM 72.9°F22.7°C 67.8°F19.9°C 84% 4.5 mph SSW7.2 kmh SSW 9.8 mph15.8 kmh 30.02 in1016.6 mb 0.00 in0.0 mm 0.00 in0.0 mm 0.00 in0.0 mm
07:30 PM 73.0°F22.8°C 68.0°F20.0°C 84% 4.5 mph S7.2 kmh S 6.9 mph11.1 kmh 30.03 in1016.9 mb 0.00 in0.0 mm 0.00 in0.0 mm 0.00 in0.0 mm
07:45 PM 72.9°F22.7°C 68.1°F20.1°C 85% 2.2 mph S3.5 kmh S 6.9 mph11.1 kmh 30.03 in1016.9 mb 0.00 in0.0 mm 0.00 in0.0 mm 0.00 in0.0 mm
08:00 PM 72.7°F22.6°C 67.9°F19.9°C 85% 3.8 mph S6.1 kmh S 6.9 mph11.1 kmh 30.03 in1016.9 mb 0.00 in0.0 mm 0.00 in0.0 mm 0.00 in0.0 mm
08:15 PM 72.3°F22.4°C 67.9°F19.9°C 86% 5.4 mph SSW8.7 kmh SSW 7.6 mph12.2 kmh 30.04 in1017.3 mb 0.00 in0.0 mm 0.00 in0.0 mm 9.96 in253.0 mm
08:30 PM 72.1°F22.3°C 68.1°F20.1°C 87% 4.5 mph S7.2 kmh S 6.0 mph9.7 kmh 30.05 in1017.6 mb 0.00 in0.0 mm 0.00 in0.0 mm 9.96 in253.0 mm
08:45 PM 72.1°F22.3°C 68.1°F20.1°C 87% 2.2 mph S3.5 kmh S 4.5 mph7.2 kmh 30.04 in1017.3 mb 0.00 in0.0 mm 0.00 in0.0 mm 9.96 in253.0 mm
09:00 PM 72.1°F22.3°C 68.1°F20.1°C 87% 3.1 mph S5.0 kmh S 4.5 mph7.2 kmh 30.04 in1017.3 mb 0.00 in0.0 mm 0.00 in0.0 mm 0.00 in0.0 mm
09:15 PM 72.1°F22.3°C 68.4°F20.2°C 88% 3.1 mph S5.0 kmh S 5.4 mph8.7 kmh 30.05 in1017.6 mb 0.00 in0.0 mm 0.00 in0.0 mm 0.00 in0.0 mm
09:30 PM 72.3°F22.4°C 68.3°F20.2°C 87% 1.6 mph WSW2.6 kmh WSW 5.4 mph8.7 kmh 30.06 in1017.9 mb 0.00 in0.0 mm 0.00 in0.0 mm 0.00 in0.0 mm
09:45 PM 72.1°F22.3°C 67.8°F19.9°C 86% 1.6 mph SSE2.6 kmh SSE 3.8 mph6.1 kmh 30.05 in1017.6 mb 0.00 in0.0 mm 0.00 in0.0 mm 9.96 in253.0 mm
10:00 PM 72.1°F22.3°C 67.8°F19.9°C 86% 1.6 mph ESE2.6 kmh ESE 4.5 mph7.2 kmh 30.06 in1017.9 mb 0.00 in0.0 mm 0.00 in0.0 mm 0.00 in0.0 mm
10:15 PM 71.6°F22.0°C 67.6°F19.8°C 87% 3.1 mph E5.0 kmh E 6.0 mph9.7 kmh 30.06 in1017.9 mb 0.00 in0.0 mm 0.00 in0.0 mm 0.00 in0.0 mm
10:30 PM 71.2°F21.8°C 67.9°F19.9°C 89% 2.2 mph ESE3.5 kmh ESE 5.4 mph8.7 kmh 30.07 in1018.3 mb 0.00 in0.0 mm 0.00 in0.0 mm 0.00 in0.0 mm
10:45 PM 70.9°F21.6°C 67.8°F19.9°C 90% 1.6 mph SE2.6 kmh SE 3.8 mph6.1 kmh 30.07 in1018.3 mb 0.00 in0.0 mm 0.00 in0.0 mm 0.00 in0.0 mm
11:00 PM 70.9°F21.6°C 68.2°F20.1°C 91% 1.6 mph ESE2.6 kmh ESE 3.8 mph6.1 kmh 30.07 in1018.3 mb 0.00 in0.0 mm 0.00 in0.0 mm 0.00 in0.0 mm
11:15 PM 70.9°F21.6°C 68.2°F20.1°C 91% 0.7 mph E1.1 kmh E 3.8 mph6.1 kmh 30.07 in1018.3 mb 0.00 in0.0 mm 0.00 in0.0 mm 0.00 in0.0 mm
11:30 PM 70.7°F21.5°C 68.0°F20.0°C 91% 0.7 mph E1.1 kmh E 3.1 mph5.0 kmh 30.08 in1018.6 mb 0.00 in0.0 mm 0.00 in0.0 mm 0.00 in0.0 mm
11:45 PM 70.5°F21.4°C 67.8°F19.9°C 91% 1.6 mph E2.6 kmh E 4.5 mph7.2 kmh 30.07 in1018.3 mb 0.00 in0.0 mm 0.00 in0.0 mm 0.00 in0.0 mm